Time;durP1;ratioP1;P1;durP2;ratioP2;P2;SDS_P1;SDS_P2;PMS_P1;PMS_P2;Temp;Humidity;BMP_temperature;BMP_pressure;BME280_temperature;BME280_humidity;BME280_pressure;Samples;Min_cycle;Max_cycle;Signal;HPM_P1;HPM_P2
2022/04/12 00:01:14;;;;;;;;;;;2.90;99.70;;;;;;4962039;28;19983;-80
2022/04/12 00:03:40;;;;;;;;;;;2.90;99.50;;;;;;4964577;28;19906;-79
2022/04/12 00:06:05;;;;;;;;;;;2.90;99.60;;;;;;4946715;28;19913;-80
2022/04/12 00:08:31;;;;;;;;;;;2.90;99.40;;;;;;4961820;28;20013;-79
2022/04/12 00:10:57;;;;;;;;;;;2.90;99.40;;;;;;4946129;28;19914;-80
2022/04/12 00:13:22;;;;;;;;;;;2.90;99.40;;;;;;4965369;28;19910;-79
2022/04/12 00:15:48;;;;;;;;;;;2.90;99.40;;;;;;4946060;28;19917;-80
2022/04/12 00:20:58;;;;;;;;;;;2.80;99.40;;;;;;5031051;28;20164;-80
2022/04/12 00:23:23;;;;;;;;;;;2.80;99.50;;;;;;5042285;28;20402;-80
2022/04/12 00:25:49;;;;;;;;;;;2.80;99.50;;;;;;5045437;28;19905;-79
2022/04/12 00:28:15;;;;;;;;;;;2.80;99.40;;;;;;5023943;28;19909;-79
2022/04/12 00:30:41;;;;;;;;;;;2.80;99.40;;;;;;5042346;28;19959;-79
2022/04/12 00:33:07;;;;;;;;;;;2.90;99.40;;;;;;5042729;28;19909;-79
2022/04/12 00:35:34;;;;;;;;;;;2.80;99.30;;;;;;5042828;28;20459;-79
2022/04/12 00:38:00;;;;;;;;;;;2.80;99.40;;;;;;5024738;28;19935;-80
2022/04/12 00:40:26;;;;;;;;;;;2.80;99.40;;;;;;5043882;28;19921;-79
2022/04/12 00:42:52;;;;;;;;;;;2.80;99.30;;;;;;5041493;28;20576;-79
2022/04/12 00:45:18;;;;;;;;;;;2.80;99.50;;;;;;5043280;28;20294;-80
2022/04/12 00:47:44;;;;;;;;;;;2.80;99.60;;;;;;5041891;28;20600;-79
2022/04/12 00:50:10;;;;;;;;;;;2.60;99.70;;;;;;5026409;28;19905;-79
2022/04/12 00:52:38;;;;;;;;;;;2.60;99.80;;;;;;5044490;28;20051;-80
2022/04/12 00:55:04;;;;;;;;;;;2.70;99.70;;;;;;5042440;28;19952;-79
2022/04/12 00:57:31;;;;;;;;;;;2.60;99.80;;;;;;5043614;28;19905;-80
2022/04/12 00:59:58;;;;;;;;;;;2.60;99.90;;;;;;5045439;28;19931;-82
2022/04/12 01:02:24;;;;;;;;;;;4.00;99.90;;;;;;5043514;28;20292;-79
2022/04/12 01:04:50;;;;;;;;;;;2.50;99.90;;;;;;5026179;28;19909;-79
2022/04/12 01:07:16;;;;;;;;;;;2.50;99.90;;;;;;5044053;28;19916;-79
2022/04/12 01:09:41;;;;;;;;;;;2.50;99.90;;;;;;5043648;28;19979;-79
2022/04/12 01:12:09;;;;;;;;;;;2.50;99.90;;;;;;5043908;28;19909;-80
2022/04/12 01:14:35;;;;;;;;;;;2.50;99.90;;;;;;5042832;28;19939;-80
2022/04/12 01:17:03;;;;;;;;;;;2.50;99.90;;;;;;5042217;28;20551;-80
2022/04/12 01:19:29;;;;;;;;;;;2.50;99.90;;;;;;5043179;28;19909;-80
2022/04/12 01:22:00;;;;;;;;;;;2.40;99.90;;;;;;5043225;28;19944;-80
2022/04/12 01:24:26;;;;;;;;;;;2.00;99.90;;;;;;5044162;28;19912;-80
2022/04/12 01:26:52;;;;;;;;;;;2.30;99.90;;;;;;5045677;28;19909;-80
2022/04/12 01:29:18;;;;;;;;;;;2.40;99.90;;;;;;5044075;28;20004;-80
2022/04/12 01:31:44;;;;;;;;;;;2.30;99.90;;;;;;5052497;28;19913;-80
2022/04/12 01:34:09;;;;;;;;;;;2.40;99.90;;;;;;5056661;28;20248;-80
2022/04/12 01:36:35;;;;;;;;;;;2.30;99.90;;;;;;5063765;28;19955;-80
2022/04/12 01:39:02;;;;;;;;;;;2.30;99.90;;;;;;5056525;28;19920;-80
2022/04/12 01:41:29;;;;;;;;;;;2.30;99.90;;;;;;5046968;28;19921;-80
2022/04/12 01:43:54;;;;;;;;;;;2.30;99.90;;;;;;5053909;28;19917;-80
2022/04/12 01:46:20;;;;;;;;;;;2.30;99.90;;;;;;5053724;28;19928;-80
2022/04/12 01:48:47;;;;;;;;;;;2.20;99.90;;;;;;5052634;28;19913;-79
2022/04/12 01:51:13;;;;;;;;;;;2.20;99.90;;;;;;5051850;28;19909;-80
2022/04/12 01:53:39;;;;;;;;;;;2.20;99.90;;;;;;5050817;28;19962;-81
2022/04/12 01:56:05;;;;;;;;;;;2.20;99.90;;;;;;5029165;28;20355;-80
2022/04/12 01:58:32;;;;;;;;;;;2.20;99.90;;;;;;5031137;28;19916;-79
2022/04/12 02:00:58;;;;;;;;;;;2.50;99.90;;;;;;5034786;28;19917;-79
2022/04/12 02:03:24;;;;;;;;;;;2.10;99.90;;;;;;5049513;28;20050;-80
2022/04/12 02:05:51;;;;;;;;;;;2.10;99.90;;;;;;5027364;28;19909;-81
2022/04/12 02:08:17;;;;;;;;;;;2.20;99.90;;;;;;5041915;28;19932;-80
2022/04/12 02:10:42;;;;;;;;;;;2.20;99.90;;;;;;5046876;28;19944;-80
2022/04/12 02:13:08;;;;;;;;;;;2.10;99.90;;;;;;5043043;28;20306;-80
2022/04/12 02:15:33;;;;;;;;;;;2.00;99.90;;;;;;5025315;28;20639;-79
2022/04/12 02:17:59;;;;;;;;;;;2.10;99.90;;;;;;5046719;28;19909;-79
2022/04/12 02:20:25;;;;;;;;;;;2.10;99.90;;;;;;5042844;28;20598;-79
2022/04/12 02:22:50;;;;;;;;;;;2.00;99.90;;;;;;5042306;28;19909;-79
2022/04/12 02:25:16;;;;;;;;;;;2.00;99.90;;;;;;5046231;28;19955;-79
2022/04/12 02:27:41;;;;;;;;;;;2.00;99.90;;;;;;5046462;28;19897;-79
2022/04/12 02:30:07;;;;;;;;;;;2.00;99.90;;;;;;5051813;28;19966;-80
2022/04/12 02:32:33;;;;;;;;;;;2.00;99.90;;;;;;5031423;28;20284;-79
2022/04/12 02:35:00;;;;;;;;;;;2.00;99.90;;;;;;5047816;28;19971;-80
2022/04/12 02:37:26;;;;;;;;;;;2.00;99.90;;;;;;5054394;28;19992;-81
2022/04/12 02:39:52;;;;;;;;;;;1.90;99.90;;;;;;5064547;28;19959;-80
2022/04/12 02:42:18;;;;;;;;;;;1.90;99.90;;;;;;5065583;28;19904;-80
2022/04/12 02:44:43;;;;;;;;;;;1.90;99.90;;;;;;5063598;28;19962;-80
2022/04/12 02:47:09;;;;;;;;;;;1.90;99.90;;;;;;5066887;28;19923;-80
2022/04/12 02:49:35;;;;;;;;;;;1.80;99.90;;;;;;5039374;28;19897;-81
2022/04/12 02:52:00;;;;;;;;;;;1.90;99.90;;;;;;5050681;28;19999;-81
2022/04/12 02:54:26;;;;;;;;;;;1.90;99.90;;;;;;5035234;28;20535;-81
2022/04/12 02:56:51;;;;;;;;;;;1.90;99.90;;;;;;5047595;28;20016;-80
2022/04/12 02:59:17;;;;;;;;;;;3.40;99.90;;;;;;5046329;28;19909;-81
2022/04/12 03:01:43;;;;;;;;;;;1.80;99.90;;;;;;5048567;28;20470;-80
2022/04/12 03:04:08;;;;;;;;;;;1.90;99.90;;;;;;5047919;28;19937;-80
2022/04/12 03:06:34;;;;;;;;;;;1.90;99.90;;;;;;5048311;28;19909;-80
2022/04/12 03:09:00;;;;;;;;;;;1.80;99.90;;;;;;5047380;28;19949;-80
2022/04/12 03:11:25;;;;;;;;;;;1.80;99.90;;;;;;5047148;28;19916;-80
2022/04/12 03:13:51;;;;;;;;;;;1.80;99.90;;;;;;5047999;28;19912;-80
2022/04/12 03:16:17;;;;;;;;;;;1.90;99.90;;;;;;5052988;28;20445;-80
2022/04/12 03:18:43;;;;;;;;;;;1.80;99.90;;;;;;5053332;28;19916;-79
2022/04/12 03:21:08;;;;;;;;;;;1.80;99.90;;;;;;5053551;28;19921;-79
2022/04/12 03:23:34;;;;;;;;;;;2.00;99.90;;;;;;5052310;28;20454;-79
2022/04/12 03:25:59;;;;;;;;;;;1.80;99.90;;;;;;5053955;28;20575;-80
2022/04/12 03:28:25;;;;;;;;;;;1.80;99.90;;;;;;5054504;28;20428;-80
2022/04/12 03:30:50;;;;;;;;;;;1.70;99.90;;;;;;5052480;28;20282;-79
2022/04/12 03:33:16;;;;;;;;;;;1.70;99.90;;;;;;5052581;28;20517;-80
2022/04/12 03:35:43;;;;;;;;;;;1.70;99.90;;;;;;5047722;28;19931;-80
2022/04/12 03:38:08;;;;;;;;;;;1.70;99.90;;;;;;5026023;28;19970;-79
2022/04/12 03:40:34;;;;;;;;;;;1.70;99.90;;;;;;5045105;28;19929;-79
2022/04/12 03:43:06;;;;;;;;;;;1.60;99.90;;;;;;5045301;28;19925;-80
2022/04/12 03:45:32;;;;;;;;;;;1.50;99.90;;;;;;5027586;28;19939;-80
2022/04/12 03:47:58;;;;;;;;;;;1.60;99.90;;;;;;5045390;28;19909;-79
2022/04/12 03:50:24;;;;;;;;;;;1.60;99.90;;;;;;5044870;28;20773;-77
2022/04/12 03:52:50;;;;;;;;;;;1.60;99.90;;;;;;5047698;28;19921;-79
2022/04/12 03:55:15;;;;;;;;;;;1.60;99.90;;;;;;5044830;28;19909;-80
2022/04/12 03:57:41;;;;;;;;;;;1.60;99.90;;;;;;5051090;28;19951;-82
2022/04/12 04:00:08;;;;;;;;;;;2.10;99.90;;;;;;5060215;28;20164;-82
2022/04/12 04:02:37;;;;;;;;;;;1.70;99.90;;;;;;5045171;28;19944;-84
2022/04/12 04:05:03;;;;;;;;;;;1.70;99.90;;;;;;5036757;28;19909;-81
2022/04/12 04:07:29;;;;;;;;;;;1.70;99.90;;;;;;5031343;28;19908;-80
2022/04/12 04:09:54;;;;;;;;;;;1.70;99.90;;;;;;5047548;28;20056;-80
2022/04/12 04:12:20;;;;;;;;;;;1.70;99.90;;;;;;5052338;28;19909;-79
2022/04/12 04:14:46;;;;;;;;;;;1.70;99.90;;;;;;5032602;28;19962;-79
2022/04/12 04:17:15;;;;;;;;;;;1.80;99.90;;;;;;5031260;28;19920;-80
2022/04/12 04:19:41;;;;;;;;;;;1.90;99.90;;;;;;5048749;28;19931;-80
2022/04/12 04:22:06;;;;;;;;;;;1.90;99.90;;;;;;5028858;28;20038;-79
2022/04/12 04:24:32;;;;;;;;;;;1.90;99.90;;;;;;5046881;28;19940;-80
2022/04/12 04:26:58;;;;;;;;;;;2.20;99.90;;;;;;5046779;28;19909;-79
2022/04/12 04:29:24;;;;;;;;;;;4.00;99.90;;;;;;5049217;28;19960;-80
2022/04/12 04:31:51;;;;;;;;;;;2.00;99.90;;;;;;5046374;28;19909;-80
2022/04/12 04:34:16;;;;;;;;;;;2.00;99.90;;;;;;5046732;28;20596;-80
2022/04/12 04:36:42;;;;;;;;;;;2.10;99.90;;;;;;5046579;28;19904;-79
2022/04/12 04:39:07;;;;;;;;;;;2.10;99.90;;;;;;5047124;28;20120;-80
2022/04/12 04:41:33;;;;;;;;;;;2.00;99.90;;;;;;5046324;28;19925;-81
2022/04/12 04:44:00;;;;;;;;;;;2.00;99.80;;;;;;5046353;28;20160;-80
2022/04/12 04:46:26;;;;;;;;;;;2.00;99.60;;;;;;5031347;28;19955;-79
2022/04/12 04:48:51;;;;;;;;;;;2.00;99.50;;;;;;5043606;28;19912;-79
2022/04/12 04:51:17;;;;;;;;;;;1.90;99.70;;;;;;5044669;28;19912;-80
2022/04/12 04:53:49;;;;;;;;;;;1.90;99.60;;;;;;5045520;28;19952;-79
2022/04/12 04:56:14;;;;;;;;;;;1.90;99.80;;;;;;5027962;28;19920;-80
2022/04/12 04:58:40;;;;;;;;;;;1.90;99.90;;;;;;5045703;28;19905;-79
2022/04/12 05:01:05;;;;;;;;;;;1.90;99.90;;;;;;5046929;28;19917;-80
2022/04/12 05:03:31;;;;;;;;;;;1.90;99.80;;;;;;5047847;28;19971;-79
2022/04/12 05:05:57;;;;;;;;;;;1.90;99.90;;;;;;5054764;28;19897;-80
2022/04/12 05:08:24;;;;;;;;;;;1.90;99.90;;;;;;5053019;28;19904;-80
2022/04/12 05:10:49;;;;;;;;;;;2.00;99.90;;;;;;5062385;28;20117;-81
2022/04/12 05:13:15;;;;;;;;;;;2.00;99.80;;;;;;5063720;28;19917;-80
2022/04/12 05:15:41;;;;;;;;;;;2.10;99.60;;;;;;5055752;28;20355;-81
2022/04/12 05:18:06;;;;;;;;;;;2.10;99.50;;;;;;5047185;28;19967;-80
2022/04/12 05:20:32;;;;;;;;;;;2.20;99.60;;;;;;5050284;28;20382;-80
2022/04/12 05:22:57;;;;;;;;;;;2.20;99.30;;;;;;5053841;28;20374;-80
2022/04/12 05:25:23;;;;;;;;;;;2.30;99.30;;;;;;5043742;28;20567;-80
2022/04/12 05:27:49;;;;;;;;;;;2.30;99.10;;;;;;5024364;28;20616;-80
2022/04/12 05:30:16;;;;;;;;;;;2.40;98.70;;;;;;5041899;28;19913;-80
2022/04/12 05:32:41;;;;;;;;;;;2.50;98.60;;;;;;5048484;28;19967;-80
2022/04/12 05:35:07;;;;;;;;;;;2.50;98.60;;;;;;5044067;28;19966;-79
2022/04/12 05:37:42;;;;;;;;;;;2.60;98.60;;;;;;5049794;28;19920;-79
2022/04/12 05:40:09;;;;;;;;;;;2.70;98.30;;;;;;5048802;28;19923;-79
2022/04/12 05:42:35;;;;;;;;;;;2.80;98.30;;;;;;5041874;28;19921;-80
2022/04/12 05:45:00;;;;;;;;;;;2.90;98.00;;;;;;5040783;28;19909;-79
2022/04/12 05:47:27;;;;;;;;;;;2.90;98.00;;;;;;5046756;28;20152;-79
2022/04/12 05:49:53;;;;;;;;;;;3.00;98.00;;;;;;5023522;28;19963;-79
2022/04/12 05:52:19;;;;;;;;;;;3.10;98.00;;;;;;5042088;28;19912;-79
2022/04/12 05:54:44;;;;;;;;;;;3.20;97.60;;;;;;5042205;28;19916;-79
2022/04/12 05:57:10;;;;;;;;;;;3.40;97.60;;;;;;5045031;28;19955;-79
2022/04/12 05:59:35;;;;;;;;;;;3.40;97.30;;;;;;5043488;28;19936;-80
2022/04/12 06:02:01;;;;;;;;;;;3.50;97.00;;;;;;5045996;28;20150;-80
2022/04/12 06:04:26;;;;;;;;;;;3.60;96.80;;;;;;5049943;28;19996;-80
2022/04/12 06:06:53;;;;;;;;;;;3.70;96.80;;;;;;5063550;28;19905;-79
2022/04/12 06:09:19;;;;;;;;;;;3.90;96.80;;;;;;5045865;28;19897;-80
2022/04/12 06:11:44;;;;;;;;;;;4.00;96.50;;;;;;5051446;28;20110;-78
2022/04/12 06:14:10;;;;;;;;;;;4.10;96.20;;;;;;5028115;28;19916;-82
2022/04/12 06:16:35;;;;;;;;;;;4.20;96.00;;;;;;5042533;28;19912;-83
2022/04/12 06:19:01;;;;;;;;;;;4.40;95.90;;;;;;5042403;28;19916;-82
2022/04/12 06:21:26;;;;;;;;;;;4.50;95.50;;;;;;5070097;28;19909;-83
2022/04/12 06:23:52;;;;;;;;;;;4.70;95.20;;;;;;5055424;28;19905;-85
2022/04/12 06:26:17;;;;;;;;;;;4.80;94.80;;;;;;5056691;28;19912;-84
2022/04/12 06:28:46;;;;;;;;;;;5.00;94.80;;;;;;5074113;28;19897;-83
2022/04/12 06:31:11;;;;;;;;;;;6.60;94.70;;;;;;5069601;28;19904;-84
2022/04/12 06:33:37;;;;;;;;;;;5.20;94.60;;;;;;5054044;28;20013;-84
2022/04/12 06:36:03;;;;;;;;;;;5.50;94.60;;;;;;5057958;28;19904;-84
2022/04/12 06:38:57;;;;;;;;;;;6.40;95.00;;;;;;5056985;28;19905;-83
2022/04/12 06:41:24;;;;;;;;;;;5.80;93.80;;;;;;4994623;28;19920;-85
2022/04/12 06:43:50;;;;;;;;;;;5.60;93.30;;;;;;4993672;28;19978;-84
2022/04/12 06:46:15;;;;;;;;;;;5.90;94.60;;;;;;5009079;28;19914;-78
2022/04/12 06:48:53;;;;;;;;;;;6.00;93.70;;;;;;4998865;28;20231;-80
2022/04/12 06:51:19;;;;;;;;;;;6.30;92.80;;;;;;4978654;28;19953;-82
2022/04/12 06:53:45;;;;;;;;;;;6.80;93.20;;;;;;4980833;28;20603;-80
2022/04/12 06:56:10;;;;;;;;;;;6.60;93.00;;;;;;4985107;28;19995;-81
2022/04/12 06:58:37;;;;;;;;;;;6.50;92.40;;;;;;4985623;28;19933;-79
2022/04/12 07:01:02;;;;;;;;;;;6.60;92.20;;;;;;4984806;28;19913;-79
2022/04/12 07:03:29;;;;;;;;;;;6.70;91.30;;;;;;4967742;28;19933;-80
2022/04/12 07:05:56;;;;;;;;;;;6.70;91.20;;;;;;4983110;28;20648;-80
2022/04/12 07:08:22;;;;;;;;;;;6.90;90.20;;;;;;4985708;28;19941;-80
2022/04/12 07:10:48;;;;;;;;;;;7.00;90.00;;;;;;4967601;28;19906;-80
2022/04/12 07:13:13;;;;;;;;;;;7.10;89.30;;;;;;4984293;28;19925;-79
2022/04/12 07:15:39;;;;;;;;;;;7.30;88.90;;;;;;4969170;28;19918;-80
2022/04/12 07:18:05;;;;;;;;;;;7.40;89.20;;;;;;4969230;28;20008;-79
2022/04/12 07:20:30;;;;;;;;;;;7.50;88.90;;;;;;4969501;28;19918;-79
2022/04/12 07:22:57;;;;;;;;;;;7.60;87.80;;;;;;4988334;28;19909;-80
2022/04/12 07:25:22;;;;;;;;;;;7.90;88.30;;;;;;4971644;28;20466;-79
2022/04/12 07:27:48;;;;;;;;;;;8.00;87.70;;;;;;4988160;28;19932;-80
2022/04/12 07:30:14;;;;;;;;;;;8.10;86.10;;;;;;4988749;28;20008;-80
2022/04/12 07:32:39;;;;;;;;;;;8.20;85.50;;;;;;5026934;28;20345;-79
2022/04/12 07:35:06;;;;;;;;;;;8.40;84.20;;;;;;5036625;28;19909;-80
2022/04/12 07:37:31;;;;;;;;;;;8.50;83.60;;;;;;5031788;28;19915;-80
2022/04/12 07:39:57;;;;;;;;;;;8.60;83.50;;;;;;5033181;28;19996;-79
2022/04/12 07:42:23;;;;;;;;;;;8.70;82.60;;;;;;5041746;28;19929;-81
2022/04/12 07:44:49;;;;;;;;;;;7.80;82.50;;;;;;5065755;28;19963;-79
2022/04/12 07:47:14;;;;;;;;;;;9.00;82.10;;;;;;5061625;28;20023;-82
2022/04/12 07:49:41;;;;;;;;;;;9.20;81.80;;;;;;5060205;28;19917;-80
2022/04/12 07:52:06;;;;;;;;;;;9.40;80.50;;;;;;5060964;28;19911;-80
2022/04/12 07:54:32;;;;;;;;;;;9.50;78.40;;;;;;5058307;28;20164;-76
2022/04/12 07:56:58;;;;;;;;;;;9.50;78.30;;;;;;5062246;28;19944;-79
2022/04/12 07:59:24;;;;;;;;;;;9.70;77.30;;;;;;5055975;28;19927;-75
2022/04/12 08:01:50;;;;;;;;;;;9.90;76.20;;;;;;5058412;28;20513;-76
2022/04/12 08:04:15;;;;;;;;;;;9.80;75.00;;;;;;5054500;28;19909;-78
2022/04/12 08:06:41;;;;;;;;;;;10.50;74.70;;;;;;5056035;28;19905;-81
2022/04/12 08:09:09;;;;;;;;;;;10.40;73.20;;;;;;5051890;28;19915;-79
2022/04/12 08:11:35;;;;;;;;;;;10.50;72.50;;;;;;5047624;28;19913;-79
2022/04/12 08:14:01;;;;;;;;;;;10.40;72.40;;;;;;5044852;28;19909;-77
2022/04/12 08:16:26;;;;;;;;;;;10.60;72.40;;;;;;5034145;28;20518;-78
2022/04/12 08:18:52;;;;;;;;;;;10.70;70.50;;;;;;5027308;28;20574;-78
2022/04/12 08:21:39;;;;;;;;;;;10.70;72.10;;;;;;5026205;28;19924;-78
2022/04/12 08:24:06;;;;;;;;;;;11.00;75.50;;;;;;5029677;28;19947;-79
2022/04/12 08:26:32;;;;;;;;;;;11.00;70.40;;;;;;5042349;28;19905;-79
2022/04/12 08:29:17;;;;;;;;;;;12.20;68.80;;;;;;5049191;28;20563;-81
2022/04/12 08:31:44;;;;;;;;;;;11.70;75.40;;;;;;5044912;28;19909;-87
2022/04/12 08:34:09;;;;;;;;;;;11.90;66.60;;;;;;5036158;28;19936;-87
2022/04/12 08:36:35;;;;;;;;;;;11.80;65.20;;;;;;5048114;28;19913;-87
2022/04/12 08:39:01;;;;;;;;;;;11.90;64.50;;;;;;5045400;28;20417;-84
2022/04/12 08:41:28;;;;;;;;;;;12.00;62.70;;;;;;5026215;28;19995;-82
2022/04/12 08:43:56;;;;;;;;;;;12.10;64.10;;;;;;5041490;28;19925;-83
2022/04/12 08:46:25;;;;;;;;;;;12.20;62.00;;;;;;5023872;28;19962;-85
2022/04/12 08:48:54;;;;;;;;;;;12.30;61.50;;;;;;5025356;28;20441;-85
2022/04/12 08:51:21;;;;;;;;;;;12.50;60.40;;;;;;5024513;28;19971;-89
2022/04/12 08:53:48;;;;;;;;;;;12.70;64.00;;;;;;5043852;28;19909;-88
2022/04/12 08:56:14;;;;;;;;;;;13.00;65.20;;;;;;5043709;28;20015;-89
2022/04/12 08:58:40;;;;;;;;;;;13.20;59.20;;;;;;5043478;28;20540;-83
2022/04/12 09:01:06;;;;;;;;;;;13.30;67.90;;;;;;5041301;28;19927;-87
2022/04/12 09:03:31;;;;;;;;;;;13.60;57.40;;;;;;5040766;28;19912;-86
2022/04/12 09:05:57;;;;;;;;;;;13.70;58.40;;;;;;5041084;28;20078;-90
2022/04/12 09:08:26;;;;;;;;;;;13.80;55.50;;;;;;5023020;28;19905;-89
2022/04/12 09:10:57;;;;;;;;;;;13.50;54.60;;;;;;5042463;28;20071;-90
2022/04/12 09:13:22;;;;;;;;;;;13.80;54.30;;;;;;5024612;28;19909;-85
2022/04/12 09:15:48;;;;;;;;;;;13.90;53.50;;;;;;5023664;28;20501;-86
2022/04/12 09:18:29;;;;;;;;;;;13.70;52.70;;;;;;5023555;28;19913;-87
2022/04/12 09:20:56;;;;;;;;;;;13.80;50.90;;;;;;5043851;28;20582;-92
2022/04/12 09:23:22;;;;;;;;;;;13.90;52.00;;;;;;5023417;28;19915;-87
2022/04/12 09:25:54;;;;;;;;;;;14.20;50.50;;;;;;5023623;28;20008;-83
2022/04/12 09:28:20;;;;;;;;;;;13.10;50.10;;;;;;5041961;28;20614;-85
2022/04/12 09:31:08;;;;;;;;;;;14.40;49.80;;;;;;5040935;28;19948;-87
2022/04/12 09:33:35;;;;;;;;;;;14.50;48.90;;;;;;5021995;28;19916;-87
2022/04/12 09:36:00;;;;;;;;;;;14.60;46.90;;;;;;5040187;28;19909;-85
2022/04/12 09:38:36;;;;;;;;;;;14.60;47.20;;;;;;5040800;28;20004;-89
2022/04/12 09:41:22;;;;;;;;;;;14.60;46.10;;;;;;5022393;28;20522;-84
2022/04/12 09:43:51;;;;;;;;;;;14.50;45.90;;;;;;5022598;28;19925;-88
2022/04/12 09:46:17;;;;;;;;;;;14.70;46.20;;;;;;5040290;28;20007;-88
2022/04/12 09:48:47;;;;;;;;;;;15.00;45.80;;;;;;5039685;28;20016;-83
2022/04/12 09:51:13;;;;;;;;;;;15.20;44.30;;;;;;5040163;28;20004;-87
2022/04/12 09:53:40;;;;;;;;;;;15.40;44.30;;;;;;5039643;28;19909;-85
2022/04/12 09:56:21;;;;;;;;;;;15.50;43.80;;;;;;5040667;28;19948;-85
2022/04/12 09:58:47;;;;;;;;;;;15.70;43.30;;;;;;5040829;28;20008;-87
2022/04/12 10:01:14;;;;;;;;;;;15.80;43.10;;;;;;5023165;28;20548;-85
2022/04/12 10:03:43;;;;;;;;;;;15.90;42.90;;;;;;5041076;28;19908;-83
2022/04/12 10:06:08;;;;;;;;;;;16.20;42.40;;;;;;5041161;28;20667;-88
2022/04/12 10:08:35;;;;;;;;;;;16.40;44.40;;;;;;5022917;28;19912;-85
2022/04/12 10:11:01;;;;;;;;;;;16.70;42.80;;;;;;5027476;28;20181;-88
2022/04/12 10:13:29;;;;;;;;;;;16.90;45.20;;;;;;5023605;28;20422;-89
2022/04/12 10:15:55;;;;;;;;;;;17.60;40.40;;;;;;5014583;28;19920;-86
2022/04/12 10:18:21;;;;;;;;;;;17.10;38.70;;;;;;5065813;28;19995;-89
2022/04/12 10:20:46;;;;;;;;;;;17.10;39.40;;;;;;5066076;28;19978;-88
2022/04/12 10:23:14;;;;;;;;;;;17.00;39.80;;;;;;5040291;28;20083;-82
2022/04/12 10:25:39;;;;;;;;;;;17.10;40.80;;;;;;5034668;28;19897;-89
2022/04/12 10:28:06;;;;;;;;;;;17.00;41.00;;;;;;5028234;28;19984;-84
2022/04/12 10:30:32;;;;;;;;;;;16.90;39.70;;;;;;5028413;28;19909;-82
2022/04/12 10:32:57;;;;;;;;;;;17.00;39.50;;;;;;5049218;28;19908;-88
2022/04/12 10:35:24;;;;;;;;;;;17.20;40.00;;;;;;5053150;28;19913;-87
2022/04/12 10:37:53;;;;;;;;;;;17.40;40.10;;;;;;5027326;28;19916;-94
2022/04/12 10:40:19;;;;;;;;;;;17.50;39.70;;;;;;5025844;28;20121;-85
2022/04/12 10:42:49;;;;;;;;;;;17.60;39.30;;;;;;5024686;28;19929;-92
2022/04/12 10:45:15;;;;;;;;;;;17.90;40.40;;;;;;5024027;28;19948;-83
2022/04/12 10:47:42;;;;;;;;;;;18.10;41.30;;;;;;5059444;28;19897;-80
2022/04/12 10:50:08;;;;;;;;;;;18.20;39.00;;;;;;5065187;28;19955;-80
2022/04/12 10:52:41;;;;;;;;;;;18.40;40.10;;;;;;5062767;28;19916;-79
2022/04/12 10:55:07;;;;;;;;;;;18.60;36.50;;;;;;5043656;28;19954;-81
2022/04/12 10:57:34;;;;;;;;;;;18.10;37.60;;;;;;5043500;28;20331;-81
2022/04/12 11:00:02;;;;;;;;;;;18.00;37.40;;;;;;5025438;28;20467;-80
2022/04/12 11:02:29;;;;;;;;;;;18.00;38.00;;;;;;5043306;28;19936;-81
2022/04/12 11:04:55;;;;;;;;;;;18.20;38.20;;;;;;5043149;28;19913;-82
2022/04/12 11:07:28;;;;;;;;;;;18.40;38.00;;;;;;5042832;28;19939;-83
2022/04/12 11:10:05;;;;;;;;;;;18.70;38.10;;;;;;5042281;28;19975;-82
2022/04/12 11:12:39;;;;;;;;;;;18.80;37.00;;;;;;5042790;28;19909;-82
2022/04/12 11:15:24;;;;;;;;;;;18.80;36.60;;;;;;5042154;28;20643;-81
2022/04/12 11:18:03;;;;;;;;;;;19.10;37.00;;;;;;5041291;28;19920;-81
2022/04/12 11:20:31;;;;;;;;;;;19.30;38.70;;;;;;5042431;28;20216;-81
2022/04/12 11:22:57;;;;;;;;;;;19.40;36.00;;;;;;5024253;28;20441;-81
2022/04/12 11:25:22;;;;;;;;;;;19.20;36.50;;;;;;5042067;28;20020;-80
2022/04/12 11:27:57;;;;;;;;;;;19.40;36.50;;;;;;5042458;28;20446;-81
2022/04/12 11:30:26;;;;;;;;;;;19.90;36.50;;;;;;5042378;28;19908;-82
2022/04/12 11:32:55;;;;;;;;;;;20.00;35.20;;;;;;5042991;28;19909;-80
2022/04/12 11:35:24;;;;;;;;;;;20.30;35.90;;;;;;5057968;28;19920;-81
2022/04/12 11:37:50;;;;;;;;;;;20.30;34.80;;;;;;5062278;28;19928;-80
2022/04/12 11:40:16;;;;;;;;;;;19.50;34.90;;;;;;5058018;28;20419;-80
2022/04/12 11:42:43;;;;;;;;;;;19.60;35.90;;;;;;5057949;28;20012;-80
2022/04/12 11:45:10;;;;;;;;;;;19.90;37.00;;;;;;5025803;28;19913;-81
2022/04/12 11:47:39;;;;;;;;;;;20.50;35.40;;;;;;5024500;28;19913;-82
2022/04/12 11:50:17;;;;;;;;;;;20.40;35.20;;;;;;5041956;28;19912;-80
2022/04/12 11:52:43;;;;;;;;;;;20.90;36.10;;;;;;5023391;28;19919;-81
2022/04/12 11:55:09;;;;;;;;;;;21.30;35.80;;;;;;5041529;28;20197;-81
2022/04/12 11:57:35;;;;;;;;;;;21.70;34.10;;;;;;5041252;28;19913;-81
2022/04/12 12:00:00;;;;;;;;;;;21.80;33.80;;;;;;5040482;28;19959;-81
2022/04/12 12:02:27;;;;;;;;;;;21.90;33.40;;;;;;5023074;28;20491;-81
2022/04/12 12:04:56;;;;;;;;;;;21.90;34.30;;;;;;5041392;28;19913;-82
2022/04/12 12:07:22;;;;;;;;;;;22.20;32.50;;;;;;5041343;28;19975;-81
2022/04/12 12:09:54;;;;;;;;;;;22.50;34.30;;;;;;5023670;28;19963;-81
2022/04/12 12:12:20;;;;;;;;;;;22.40;33.10;;;;;;5041398;28;20273;-81
2022/04/12 12:14:46;;;;;;;;;;;22.10;32.90;;;;;;5041302;28;19909;-80
2022/04/12 12:17:18;;;;;;;;;;;22.60;33.90;;;;;;5041124;28;20406;-81
2022/04/12 12:19:44;;;;;;;;;;;22.80;33.10;;;;;;5043483;28;19967;-84
2022/04/12 12:22:11;;;;;;;;;;;22.80;33.10;;;;;;5043880;28;20211;-88
2022/04/12 12:24:52;;;;;;;;;;;24.20;32.70;;;;;;5023473;28;20521;-84
2022/04/12 12:27:25;;;;;;;;;;;22.90;31.50;;;;;;5023224;28;20414;-84
2022/04/12 12:29:51;;;;;;;;;;;22.80;31.20;;;;;;5023175;28;20015;-81
2022/04/12 12:32:17;;;;;;;;;;;23.20;32.10;;;;;;5041067;28;20341;-81
2022/04/12 12:34:44;;;;;;;;;;;23.10;31.50;;;;;;5040988;28;19992;-81
2022/04/12 12:37:11;;;;;;;;;;;23.60;33.00;;;;;;5041018;28;19913;-87
2022/04/12 12:39:39;;;;;;;;;;;23.90;32.80;;;;;;5024790;28;19909;-80
2022/04/12 12:42:05;;;;;;;;;;;23.60;30.50;;;;;;5040260;28;19950;-79
2022/04/12 12:44:37;;;;;;;;;;;22.30;31.90;;;;;;5023672;28;20528;-78
2022/04/12 12:47:09;;;;;;;;;;;23.20;32.70;;;;;;5022949;28;19917;-81
2022/04/12 12:49:36;;;;;;;;;;;24.60;32.30;;;;;;5040801;28;20402;-80
2022/04/12 12:52:09;;;;;;;;;;;24.00;31.20;;;;;;5040428;28;19967;-79
2022/04/12 12:54:38;;;;;;;;;;;24.10;30.80;;;;;;5039886;28;19916;-80
2022/04/12 12:57:05;;;;;;;;;;;24.00;31.00;;;;;;5040019;28;19917;-81
2022/04/12 12:59:32;;;;;;;;;;;24.20;30.70;;;;;;5039785;28;19913;-82
2022/04/12 13:02:05;;;;;;;;;;;24.70;31.40;;;;;;5039551;28;19949;-80
2022/04/12 13:04:32;;;;;;;;;;;25.10;31.00;;;;;;5040290;28;20010;-81
2022/04/12 13:07:00;;;;;;;;;;;25.40;29.70;;;;;;5039837;28;19909;-81
2022/04/12 13:09:25;;;;;;;;;;;25.80;29.60;;;;;;5021839;28;19964;-81
2022/04/12 13:11:51;;;;;;;;;;;25.80;29.10;;;;;;5039063;28;19944;-81
2022/04/12 13:14:17;;;;;;;;;;;25.60;29.00;;;;;;5039182;28;19971;-80
2022/04/12 13:16:42;;;;;;;;;;;25.60;29.50;;;;;;5039211;28;20546;-82
2022/04/12 13:19:08;;;;;;;;;;;26.20;29.80;;;;;;5039726;28;20522;-84
2022/04/12 13:21:33;;;;;;;;;;;26.70;29.70;;;;;;5039388;28;19990;-80
2022/04/12 13:23:59;;;;;;;;;;;27.10;28.50;;;;;;5021396;28;19913;-81
2022/04/12 13:26:24;;;;;;;;;;;27.60;29.80;;;;;;5039268;28;19919;-79
2022/04/12 13:28:50;;;;;;;;;;;28.10;28.80;;;;;;5039359;28;19909;-81
2022/04/12 13:31:15;;;;;;;;;;;28.10;28.50;;;;;;5039461;28;20582;-80
2022/04/12 13:33:41;;;;;;;;;;;28.20;28.50;;;;;;5039501;28;19955;-81
2022/04/12 13:36:07;;;;;;;;;;;28.30;28.40;;;;;;5039432;28;19957;-82
2022/04/12 13:38:35;;;;;;;;;;;28.70;29.00;;;;;;5021392;28;20033;-80
2022/04/12 13:41:00;;;;;;;;;;;28.00;28.10;;;;;;5039070;28;19917;-81
2022/04/12 13:43:26;;;;;;;;;;;28.30;27.50;;;;;;5039307;28;19928;-81
2022/04/12 13:45:53;;;;;;;;;;;27.80;27.10;;;;;;5039335;28;19966;-82
2022/04/12 13:48:19;;;;;;;;;;;27.80;28.50;;;;;;5039388;28;20319;-80
2022/04/12 13:50:44;;;;;;;;;;;28.40;28.40;;;;;;5039228;28;19913;-82
2022/04/12 13:53:10;;;;;;;;;;;29.00;28.00;;;;;;5039250;28;20627;-82
2022/04/12 13:55:36;;;;;;;;;;;28.90;27.40;;;;;;5038300;28;20078;-82
2022/04/12 13:58:01;;;;;;;;;;;28.80;27.90;;;;;;5038493;28;20173;-83
2022/04/12 14:00:27;;;;;;;;;;;29.10;27.90;;;;;;5039358;28;19913;-82
2022/04/12 14:02:53;;;;;;;;;;;29.70;27.50;;;;;;5039672;28;20318;-80
2022/04/12 14:05:21;;;;;;;;;;;29.70;27.20;;;;;;5039162;28;20002;-81
2022/04/12 14:07:47;;;;;;;;;;;29.60;27.20;;;;;;5039164;28;20054;-82
2022/04/12 14:10:13;;;;;;;;;;;29.90;26.90;;;;;;5039109;28;20007;-82
2022/04/12 14:12:38;;;;;;;;;;;28.60;26.80;;;;;;5020913;28;19920;-81
2022/04/12 14:15:04;;;;;;;;;;;28.10;27.40;;;;;;5021335;28;19909;-83
2022/04/12 14:17:30;;;;;;;;;;;27.90;27.20;;;;;;5039255;28;20607;-82
2022/04/12 14:19:55;;;;;;;;;;;28.30;27.70;;;;;;5038540;28;19912;-82
2022/04/12 14:22:21;;;;;;;;;;;28.60;27.10;;;;;;5040399;28;19921;-82
2022/04/12 14:24:46;;;;;;;;;;;28.80;27.30;;;;;;5025211;28;20406;-82